Time;durP1;ratioP1;P1;durP2;ratioP2;P2;SDS_P1;SDS_P2;PMS_P1;PMS_P2;Temp;Humidity;BMP_temperature;BMP_pressure;BME280_temperature;BME280_humidity;BME280_pressure;Samples;Min_cycle;Max_cycle;Signal;HPM_P1;HPM_P2
2021/12/17 07:50:43;;;;;;;;;;;;;;;1.55;78.23;98740.78;4217685;27;11280;-71
2021/12/17 07:52:45;;;;;;;;;;;;;;;1.65;78.45;98745.38;4203569;28;5823;-71
2021/12/17 07:54:46;;;;;;;;;;;;;;;1.75;77.88;98751.75;4200577;28;5733;-72
2021/12/17 07:56:48;;;;;;;;;;;;;;;1.74;77.63;98755.28;4231642;27;5684;-72
2021/12/17 07:58:49;;;;;;;;;;;;;;;1.81;77.21;98753.13;4207859;28;5844;-69
2021/12/17 08:00:52;;;;;;;;;;;;;;;1.88;77.51;98751.00;4210295;28;5688;-73
2021/12/17 08:02:53;;;;;;;;;;;;;;;2.13;76.90;98753.00;4214128;28;5802;-74
2021/12/17 08:04:55;;;;;;;;;;;;;;;2.03;76.39;98758.75;4210867;28;5804;-75
2021/12/17 08:06:57;;;;;;;;;;;;;;;2.02;76.96;98764.06;4198062;28;5822;-74
2021/12/17 08:08:59;;;;;;;;;;;;;;;2.17;76.30;98768.38;4211423;28;5704;-72
2021/12/17 08:11:01;;;;;;;;;;;;;;;1.94;77.25;98759.31;4214945;28;5744;-73
2021/12/17 08:13:05;;;;;;;;;;;;;;;2.02;77.08;98764.06;4213718;28;5698;-74
2021/12/17 08:15:10;;;;;;;;;;;;;;;2.22;76.76;98765.47;4213829;28;5697;-75
2021/12/17 08:28:16;;;;;;;;;;;;;;;2.30;76.32;98768.47;4199104;28;5817;-72
2021/12/17 08:30:25;;;;;;;;;;;;;;;2.52;75.79;98765.41;4197988;28;5727;-71
2021/12/17 08:32:26;;;;;;;;;;;;;;;2.69;75.44;98774.78;4195349;28;5748;-73
2021/12/17 08:34:28;;;;;;;;;;;;;;;2.44;75.42;98768.47;4193308;28;5718;-73
2021/12/17 08:36:30;;;;;;;;;;;;;;;2.51;75.79;98779.38;4203053;28;5738;-72
2021/12/17 08:38:32;;;;;;;;;;;;;;;2.54;75.99;98779.19;4192565;28;5707;-72
2021/12/17 08:40:34;;;;;;;;;;;;;;;2.68;75.56;98780.94;4212608;28;6459;-73
2021/12/17 08:42:36;;;;;;;;;;;;;;;2.75;75.67;98780.47;4178298;28;5744;-73
2021/12/17 08:44:38;;;;;;;;;;;;;;;2.78;74.98;98780.28;4191147;28;5717;-74
2021/12/17 08:46:39;;;;;;;;;;;;;;;2.68;75.29;98783.56;4191070;28;5717;-75
2021/12/17 08:48:41;;;;;;;;;;;;;;;2.81;75.06;98771.41;4192364;28;5781;-75
2021/12/17 08:50:43;;;;;;;;;;;;;;;2.75;75.07;98783.09;4187819;28;5718;-74
2021/12/17 08:52:47;;;;;;;;;;;;;;;2.78;74.81;98790.72;4180798;28;5826;-74
2021/12/17 08:54:48;;;;;;;;;;;;;;;2.95;75.00;98786.22;4168189;28;5747;-74
2021/12/17 08:56:51;;;;;;;;;;;;;;;2.99;74.58;98792.94;4184972;28;5853;-74
2021/12/17 08:58:53;;;;;;;;;;;;;;;3.00;74.76;98789.38;4163337;28;5850;-73
2021/12/17 09:00:56;;;;;;;;;;;;;;;2.70;75.35;98790.34;4184827;28;6106;-73
2021/12/17 09:02:59;;;;;;;;;;;;;;;2.85;75.21;98793.81;4153642;28;5735;-73
2021/12/17 09:05:04;;;;;;;;;;;;;;;2.99;74.81;98799.00;4182535;28;5878;-74
2021/12/17 09:07:13;;;;;;;;;;;;;;;2.85;74.88;98805.09;4185502;28;5738;-74
2021/12/17 09:09:18;;;;;;;;;;;;;;;2.96;74.92;98803.59;4166751;28;5953;-73
2021/12/17 09:11:22;;;;;;;;;;;;;;;3.10;74.69;98803.53;4181711;28;5814;-73
2021/12/17 09:13:25;;;;;;;;;;;;;;;3.19;74.57;98806.41;4185544;28;5726;-73
2021/12/17 09:15:30;;;;;;;;;;;;;;;3.09;74.46;98801.88;4169580;28;5759;-73
2021/12/17 09:17:35;;;;;;;;;;;;;;;3.14;74.58;98803.22;4184207;28;5967;-73
2021/12/17 09:19:37;;;;;;;;;;;;;;;3.06;74.14;98802.91;4186327;28;5727;-74
2021/12/17 09:21:39;;;;;;;;;;;;;;;2.87;75.13;98802.38;4185953;28;5700;-74
2021/12/17 09:23:42;;;;;;;;;;;;;;;2.92;75.00;98808.97;4166051;28;5706;-74
2021/12/17 09:25:44;;;;;;;;;;;;;;;2.83;75.10;98812.19;4185924;28;5083;-73
2021/12/17 09:27:46;;;;;;;;;;;;;;;2.96;75.17;98808.81;4201631;28;5696;-74
2021/12/17 09:29:47;;;;;;;;;;;;;;;3.07;74.97;98811.59;4185171;28;5832;-73
2021/12/17 09:31:59;;;;;;;;;;;;;;;3.12;74.49;98810.34;4168178;28;5953;-74
2021/12/17 09:34:15;;;;;;;;;;;;;;;3.16;74.58;98810.97;4190944;28;5802;-73
2021/12/17 09:36:25;;;;;;;;;;;;;;;3.35;74.44;98811.47;4206878;28;6365;-74
2021/12/17 09:38:30;;;;;;;;;;;;;;;3.49;73.68;98802.75;4172690;28;5750;-73
2021/12/17 09:40:31;;;;;;;;;;;;;;;3.49;73.64;98800.97;4170619;28;5908;-73
2021/12/17 09:42:34;;;;;;;;;;;;;;;3.45;73.35;98812.56;4184345;28;5722;-73
2021/12/17 09:44:36;;;;;;;;;;;;;;;3.23;74.21;98812.28;4185793;28;5738;-74
2021/12/17 09:46:38;;;;;;;;;;;;;;;3.24;74.50;98806.09;4184526;28;5916;-73
2021/12/17 09:48:40;;;;;;;;;;;;;;;3.47;74.14;98808.06;4183910;28;5710;-74
2021/12/17 09:50:42;;;;;;;;;;;;;;;3.40;73.63;98803.38;4182476;28;5765;-73
2021/12/17 09:52:43;;;;;;;;;;;;;;;3.22;74.58;98810.59;4186645;28;5703;-70
2021/12/17 09:54:45;;;;;;;;;;;;;;;3.47;74.15;98802.00;4185738;28;5726;-73
2021/12/17 09:56:47;;;;;;;;;;;;;;;3.52;72.87;98796.50;4166982;28;5764;-73
2021/12/17 09:58:48;;;;;;;;;;;;;;;3.26;73.75;98806.84;4191515;28;5693;-73
2021/12/17 10:00:50;;;;;;;;;;;;;;;3.18;74.29;98803.91;4187833;28;5824;-73
2021/12/17 10:02:53;;;;;;;;;;;;;;;3.24;74.16;98806.09;4184899;28;5714;-74
2021/12/17 10:04:55;;;;;;;;;;;;;;;3.49;73.84;98807.97;4184100;28;6241;-74
2021/12/17 10:07:17;;;;;;;;;;;;;;;3.57;73.52;98815.31;4185433;28;5828;-74
2021/12/17 10:09:19;;;;;;;;;;;;;;;3.55;73.45;98804.13;4184819;28;5722;-73
2021/12/17 10:11:30;;;;;;;;;;;;;;;3.21;73.94;98809.75;4180657;28;5819;-72
2021/12/17 10:13:53;;;;;;;;;;;;;;;3.20;74.76;98815.94;4182299;28;5727;-73
2021/12/17 10:16:07;;;;;;;;;;;;;;;3.41;73.43;98805.88;4201362;28;5709;-73
2021/12/17 10:18:11;;;;;;;;;;;;;;;3.53;74.08;98809.47;4178625;28;5770;-73
2021/12/17 10:20:12;;;;;;;;;;;;;;;3.56;72.95;98811.88;4178362;28;5755;-73
2021/12/17 10:22:18;;;;;;;;;;;;;;;3.51;73.27;98811.31;4182719;28;5834;-73
2021/12/17 10:24:22;;;;;;;;;;;;;;;3.55;73.18;98809.38;4181002;28;5985;-73
2021/12/17 10:26:28;;;;;;;;;;;;;;;3.39;73.41;98802.50;4182102;28;5727;-73
2021/12/17 10:28:30;;;;;;;;;;;;;;;3.50;73.70;98800.03;4184940;28;5817;-73
2021/12/17 10:30:34;;;;;;;;;;;;;;;3.41;73.35;98795.41;4182641;28;5769;-73
2021/12/17 10:32:36;;;;;;;;;;;;;;;3.48;73.21;98803.69;4183766;28;5917;-72
2021/12/17 10:34:37;;;;;;;;;;;;;;;3.65;73.21;98798.19;4177904;28;5715;-73
2021/12/17 10:36:43;;;;;;;;;;;;;;;3.73;73.30;98801.13;4184439;28;5715;-73
2021/12/17 10:38:47;;;;;;;;;;;;;;;3.70;72.47;98806.56;4183797;28;5751;-73
2021/12/17 10:41:03;;;;;;;;;;;;;;;3.67;72.98;98801.56;4183545;28;5839;-73
2021/12/17 10:43:26;;;;;;;;;;;;;;;3.48;73.00;98812.38;4173754;28;5953;-73
2021/12/17 10:45:34;;;;;;;;;;;;;;;3.68;73.49;98797.16;4182171;28;5729;-73
2021/12/17 10:47:46;;;;;;;;;;;;;;;3.70;72.48;98792.66;4183461;28;5781;-74
2021/12/17 10:49:58;;;;;;;;;;;;;;;2.86;74.88;98798.09;4185289;28;5835;-73
2021/12/17 10:52:08;;;;;;;;;;;;;;;3.10;74.73;98790.47;4183961;28;5763;-73
2021/12/17 10:54:15;;;;;;;;;;;;;;;3.42;74.11;98784.00;4217772;28;5762;-74
2021/12/17 10:56:17;;;;;;;;;;;;;;;3.59;73.84;98784.69;4184722;28;5698;-74
2021/12/17 10:58:21;;;;;;;;;;;;;;;3.65;73.03;98782.50;4184202;28;5841;-74
2021/12/17 11:00:23;;;;;;;;;;;;;;;3.76;73.18;98772.16;4185431;28;5715;-73
2021/12/17 11:02:33;;;;;;;;;;;;;;;3.81;72.54;98774.47;4182621;28;5939;-74
2021/12/17 11:04:37;;;;;;;;;;;;;;;3.87;72.76;98771.44;4169041;28;5730;-74
2021/12/17 11:06:41;;;;;;;;;;;;;;;3.94;72.16;98777.94;4191941;28;5793;-74
2021/12/17 11:08:45;;;;;;;;;;;;;;;3.67;72.05;98771.94;4167682;28;5711;-74
2021/12/17 11:10:56;;;;;;;;;;;;;;;3.75;72.29;98777.50;4183267;28;5738;-74
2021/12/17 11:12:59;;;;;;;;;;;;;;;3.34;72.81;98767.97;4175616;28;5948;-74
2021/12/17 11:15:14;;;;;;;;;;;;;;;3.35;73.38;98766.19;4187005;28;5718;-74
2021/12/17 11:17:18;;;;;;;;;;;;;;;3.12;73.56;98762.47;4176598;28;5719;-73
2021/12/17 11:19:40;;;;;;;;;;;;;;;3.27;73.75;98761.47;4181649;28;5734;-72
2021/12/17 11:21:42;;;;;;;;;;;;;;;3.40;73.04;98764.16;4183267;28;5722;-73
2021/12/17 11:23:45;;;;;;;;;;;;;;;3.39;73.12;98752.81;4181589;28;5737;-73
2021/12/17 11:25:53;;;;;;;;;;;;;;;3.60;72.91;98755.81;4184262;28;6534;-73
2021/12/17 11:27:55;;;;;;;;;;;;;;;3.77;72.88;98754.69;4182299;28;5725;-73
2021/12/17 11:29:56;;;;;;;;;;;;;;;3.84;72.68;98750.72;4182011;28;5689;-73
2021/12/17 11:32:00;;;;;;;;;;;;;;;3.77;71.97;98757.31;4184303;28;5714;-73
2021/12/17 11:34:02;;;;;;;;;;;;;;;3.60;72.57;98758.41;4198104;28;5809;-73
2021/12/17 11:36:04;;;;;;;;;;;;;;;3.50;73.16;98758.19;4183220;28;5725;-73
2021/12/17 11:38:11;;;;;;;;;;;;;;;3.63;72.83;98754.78;4181787;28;5990;-73
2021/12/17 11:40:51;;;;;;;;;;;;;;;3.72;72.48;98746.28;4182195;28;5789;-73
2021/12/17 11:43:34;;;;;;;;;;;;;;;3.75;72.28;98751.34;4214806;28;5738;-73
2021/12/17 11:45:35;;;;;;;;;;;;;;;3.65;72.80;98745.88;4181600;28;5707;-73
2021/12/17 11:47:37;;;;;;;;;;;;;;;3.63;72.83;98744.31;4185246;28;6379;-73
2021/12/17 11:49:48;;;;;;;;;;;;;;;3.57;72.60;98752.56;4182515;28;5794;-73
2021/12/17 11:51:53;;;;;;;;;;;;;;;3.49;72.93;98745.22;4179098;28;5740;-73
2021/12/17 11:53:55;;;;;;;;;;;;;;;3.71;72.60;98742.00;4174739;28;5722;-73
2021/12/17 11:56:01;;;;;;;;;;;;;;;3.84;72.73;98742.84;4184829;28;5714;-73
2021/12/17 11:58:12;;;;;;;;;;;;;;;3.68;72.65;98731.75;4183641;28;5793;-73
2021/12/17 12:00:16;;;;;;;;;;;;;;;3.61;72.58;98728.69;4183621;28;5904;-73
2021/12/17 12:02:22;;;;;;;;;;;;;;;3.54;73.02;98727.47;4182348;28;5725;-73
2021/12/17 12:04:33;;;;;;;;;;;;;;;3.31;73.17;98721.13;4184230;28;6182;-73
2021/12/17 12:06:35;;;;;;;;;;;;;;;3.13;73.87;98723.16;4182398;28;5733;-73
2021/12/17 12:08:50;;;;;;;;;;;;;;;3.24;73.73;98719.84;4184670;28;5730;-73
2021/12/17 12:11:25;;;;;;;;;;;;;;;3.31;73.71;98715.06;4183314;28;5706;-73
2021/12/17 12:13:54;;;;;;;;;;;;;;;3.21;73.58;98720.06;4164333;28;5957;-73
2021/12/17 12:16:05;;;;;;;;;;;;;;;3.19;73.71;98714.09;4209947;28;6348;-73
2021/12/17 12:18:12;;;;;;;;;;;;;;;3.14;73.86;98713.53;4180312;28;6038;-73
2021/12/17 12:20:48;;;;;;;;;;;;;;;3.05;74.31;98711.50;4181243;28;5770;-73
2021/12/17 12:23:24;;;;;;;;;;;;;;;3.12;74.40;98720.66;4182953;28;6422;-74
2021/12/17 12:25:31;;;;;;;;;;;;;;;3.22;74.02;98717.34;4181964;28;5721;-73
2021/12/17 12:27:44;;;;;;;;;;;;;;;3.26;73.92;98712.72;4186100;28;5714;-73
2021/12/17 12:29:47;;;;;;;;;;;;;;;3.04;74.60;98715.06;4186970;28;5745;-73
2021/12/17 12:31:54;;;;;;;;;;;;;;;3.08;74.31;98709.56;4186353;28;5714;-73
2021/12/17 12:34:00;;;;;;;;;;;;;;;3.00;74.79;98711.00;4185950;28;5830;-73
2021/12/17 12:36:02;;;;;;;;;;;;;;;3.16;74.31;98711.66;4183727;28;5824;-73
2021/12/17 12:38:20;;;;;;;;;;;;;;;3.29;73.84;98707.31;4168350;28;5800;-73
2021/12/17 12:40:22;;;;;;;;;;;;;;;3.28;73.39;98721.31;4172395;28;5732;-73
2021/12/17 12:42:28;;;;;;;;;;;;;;;3.27;73.84;98709.19;4187615;28;5770;-73
2021/12/17 12:44:42;;;;;;;;;;;;;;;3.23;73.80;98707.72;4186385;28;5917;-74
2021/12/17 12:46:57;;;;;;;;;;;;;;;3.04;74.67;98709.84;4182958;28;5782;-73
2021/12/17 12:48:58;;;;;;;;;;;;;;;3.30;73.93;98718.63;4183281;28;5715;-73
2021/12/17 12:51:18;;;;;;;;;;;;;;;3.35;73.61;98709.53;4184453;28;5850;-73
2021/12/17 12:53:27;;;;;;;;;;;;;;;3.24;74.33;98708.56;4185360;28;5818;-73
2021/12/17 12:55:36;;;;;;;;;;;;;;;3.37;73.76;98693.72;4150955;28;5967;-73
2021/12/17 12:57:40;;;;;;;;;;;;;;;3.32;73.85;98687.97;4186463;28;5738;-73
2021/12/17 12:59:46;;;;;;;;;;;;;;;3.42;74.09;98689.06;4172647;28;5715;-73
2021/12/17 13:01:47;;;;;;;;;;;;;;;3.45;73.77;98692.28;4184090;28;5837;-72
2021/12/17 13:03:49;;;;;;;;;;;;;;;3.37;74.24;98686.72;4186656;28;5742;-73
2021/12/17 13:05:51;;;;;;;;;;;;;;;3.37;74.33;98678.88;4187285;28;5821;-74
2021/12/17 13:07:55;;;;;;;;;;;;;;;3.12;75.21;98684.06;4185901;28;5726;-74
2021/12/17 13:09:57;;;;;;;;;;;;;;;3.04;74.98;98683.72;4167238;28;5747;-73
2021/12/17 13:11:58;;;;;;;;;;;;;;;3.18;75.10;98684.50;4180113;28;5736;-73
2021/12/17 13:14:08;;;;;;;;;;;;;;;3.11;75.44;98682.38;4178030;28;5818;-72
2021/12/17 13:16:22;;;;;;;;;;;;;;;3.17;75.08;98677.59;4185076;28;5820;-71
2021/12/17 13:21:31;;;;;;;;;;;;;;;3.31;75.23;98673.25;4183996;28;6383;-74
2021/12/17 13:23:47;;;;;;;;;;;;;;;3.16;75.63;98686.34;4184924;28;5723;-71
2021/12/17 13:26:05;;;;;;;;;;;;;;;3.14;75.78;98679.56;4186344;28;5734;-71
2021/12/17 13:28:07;;;;;;;;;;;;;;;3.26;75.51;98675.31;4185188;28;5712;-73
2021/12/17 13:30:09;;;;;;;;;;;;;;;3.40;74.92;98670.84;4184345;28;5733;-73
2021/12/17 13:32:17;;;;;;;;;;;;;;;3.56;74.74;98672.44;4217885;28;5782;-71
2021/12/17 13:34:32;;;;;;;;;;;;;;;3.66;74.26;98670.88;4186571;28;5776;-71
2021/12/17 13:36:36;;;;;;;;;;;;;;;3.49;74.76;98674.59;4186802;28;6420;-75
2021/12/17 13:38:40;;;;;;;;;;;;;;;3.32;75.38;98680.97;4186931;28;5714;-69
2021/12/17 13:40:42;;;;;;;;;;;;;;;3.34;75.19;98676.47;4185404;28;5731;-70
2021/12/17 13:42:46;;;;;;;;;;;;;;;3.47;74.51;98677.31;4186681;28;5775;-70
2021/12/17 13:44:50;;;;;;;;;;;;;;;3.40;74.91;98672.63;4183607;28;5730;-69
2021/12/17 13:46:52;;;;;;;;;;;;;;;3.41;74.76;98680.38;4179955;28;5742;-69
2021/12/17 13:48:54;;;;;;;;;;;;;;;3.36;75.10;98685.06;4184136;28;5787;-69
2021/12/17 13:50:56;;;;;;;;;;;;;;;3.52;74.89;98676.19;4184370;28;6570;-72
2021/12/17 13:53:00;;;;;;;;;;;;;;;3.58;74.86;98681.84;4185456;28;5718;-72
2021/12/17 13:55:05;;;;;;;;;;;;;;;3.56;75.01;98677.66;4169688;28;5744;-73
2021/12/17 13:57:11;;;;;;;;;;;;;;;3.58;75.03;98675.78;4181876;28;5823;-74
2021/12/17 13:59:13;;;;;;;;;;;;;;;3.49;75.09;98675.44;4181785;28;5921;-74
2021/12/17 14:01:24;;;;;;;;;;;;;;;3.46;75.35;98670.44;4186028;28;5706;-74
2021/12/17 14:03:32;;;;;;;;;;;;;;;3.61;74.95;98670.31;4176240;28;5737;-74
2021/12/17 14:05:40;;;;;;;;;;;;;;;3.67;75.04;98680.38;4184496;28;5745;-74
2021/12/17 14:07:48;;;;;;;;;;;;;;;3.61;75.14;98673.78;4185946;28;6590;-74
2021/12/17 14:10:01;;;;;;;;;;;;;;;3.61;74.79;98670.31;4184349;28;5702;-74
2021/12/17 14:12:26;;;;;;;;;;;;;;;3.65;74.77;98671.81;4186404;28;5703;-74
2021/12/17 14:14:56;;;;;;;;;;;;;;;3.75;74.63;98678.94;4182209;28;5714;-74
2021/12/17 14:17:00;;;;;;;;;;;;;;;3.77;74.26;98670.97;4185824;28;5706;-77
2021/12/17 14:19:03;;;;;;;;;;;;;;;3.80;74.72;98670.75;4184524;28;5978;-77
2021/12/17 14:21:05;;;;;;;;;;;;;;;3.77;74.62;98668.38;4185105;28;5834;-77
2021/12/17 14:23:12;;;;;;;;;;;;;;;3.83;74.38;98675.78;4184710;28;5731;-77
2021/12/17 14:25:38;;;;;;;;;;;;;;;3.78;74.62;98675.28;4166945;28;5739;-77
2021/12/17 14:27:44;;;;;;;;;;;;;;;3.71;74.69;98671.38;4180874;28;5706;-77
2021/12/17 14:29:46;;;;;;;;;;;;;;;3.65;75.07;98666.59;4184597;28;5714;-77
2021/12/17 14:31:58;;;;;;;;;;;;;;;3.65;74.87;98677.03;4184468;28;5729;-77
2021/12/17 14:34:00;;;;;;;;;;;;;;;3.65;74.99;98672.66;4183441;28;5714;-77
2021/12/17 14:36:05;;;;;;;;;;;;;;;3.70;74.59;98680.19;4184816;28;5851;-77
2021/12/17 14:38:06;;;;;;;;;;;;;;;3.73;74.27;98675.56;4176256;28;5868;-77
2021/12/17 14:40:24;;;;;;;;;;;;;;;3.62;74.84;98688.53;4168137;28;5862;-77
2021/12/17 14:42:31;;;;;;;;;;;;;;;3.68;74.24;98687.28;4183087;28;5726;-77
2021/12/17 14:44:51;;;;;;;;;;;;;;;3.78;73.95;98680.50;4184080;28;5868;-76
2021/12/17 14:47:03;;;;;;;;;;;;;;;3.77;73.84;98681.44;4176726;28;5722;-77
2021/12/17 15:05:28;;;;;;;;;;;;;;;3.73;73.25;98686.03;4174198;28;5862;-75
2021/12/17 15:07:30;;;;;;;;;;;;;;;3.64;73.64;98676.22;4169319;28;5864;-76
2021/12/17 15:09:33;;;;;;;;;;;;;;;3.71;72.95;98676.63;4182650;28;5825;-76
2021/12/17 15:11:41;;;;;;;;;;;;;;;3.59;72.76;98682.69;4180681;28;5832;-76
2021/12/17 15:13:42;;;;;;;;;;;;;;;3.52;73.20;98671.81;4182442;28;5837;-76
2021/12/17 15:15:46;;;;;;;;;;;;;;;3.33;73.83;98677.41;4177766;28;5832;-76
2021/12/17 15:17:50;;;;;;;;;;;;;;;3.44;73.92;98674.94;4173876;28;5874;-76
2021/12/17 15:19:52;;;;;;;;;;;;;;;3.50;73.83;98676.28;4180125;28;5832;-75
2021/12/17 15:21:54;;;;;;;;;;;;;;;3.46;73.82;98674.81;4180254;28;5820;-75
2021/12/17 15:24:11;;;;;;;;;;;;;;;3.37;73.61;98678.03;4182301;28;5814;-76
2021/12/17 15:26:12;;;;;;;;;;;;;;;3.51;73.51;98672.72;4180774;28;5842;-76
2021/12/17 15:28:17;;;;;;;;;;;;;;;3.35;73.62;98672.09;4182155;28;5820;-76
2021/12/17 15:30:25;;;;;;;;;;;;;;;3.31;73.69;98668.84;4182263;28;5838;-75
2021/12/17 15:32:27;;;;;;;;;;;;;;;3.41;73.47;98672.53;4181855;28;5805;-76
2021/12/17 15:34:29;;;;;;;;;;;;;;;3.17;74.05;98666.28;4182098;28;5942;-76
2021/12/17 15:36:30;;;;;;;;;;;;;;;3.20;73.70;98666.09;4180561;28;5833;-76
2021/12/17 15:38:32;;;;;;;;;;;;;;;3.10;74.39;98676.31;4180601;28;5837;-75
2021/12/17 15:40:46;;;;;;;;;;;;;;;3.05;74.14;98674.94;4180558;28;5833;-75
2021/12/17 15:42:48;;;;;;;;;;;;;;;3.17;73.92;98676.75;4213846;28;5778;-77
2021/12/17 15:44:50;;;;;;;;;;;;;;;3.02;74.25;98672.53;4182069;28;5809;-77
2021/12/17 15:46:53;;;;;;;;;;;;;;;2.90;74.83;98680.22;4182179;28;5076;-76
2021/12/17 15:48:55;;;;;;;;;;;;;;;2.85;74.70;98674.47;4181494;28;5893;-77
2021/12/17 15:50:57;;;;;;;;;;;;;;;2.78;75.45;98670.56;4182199;28;6375;-76
2021/12/17 15:52:59;;;;;;;;;;;;;;;2.60;75.69;98677.81;4181798;28;5945;-77
2021/12/17 15:55:00;;;;;;;;;;;;;;;2.60;76.07;98674.34;4177234;28;6789;-76
2021/12/17 15:57:04;;;;;;;;;;;;;;;2.96;75.16;98672.94;4176174;28;5829;-66
2021/12/17 15:59:06;;;;;;;;;;;;;;;3.07;74.68;98675.69;4174256;28;5821;-69
2021/12/17 16:01:08;;;;;;;;;;;;;;;3.13;74.70;98670.88;4177920;28;5903;-69
2021/12/17 16:03:12;;;;;;;;;;;;;;;3.29;74.20;98670.72;4181681;28;5828;-68
2021/12/17 16:05:16;;;;;;;;;;;;;;;3.41;73.91;98671.69;4184939;28;5826;-68
2021/12/17 16:07:20;;;;;;;;;;;;;;;3.32;73.70;98675.75;4183371;28;5828;-68
2021/12/17 16:10:55;;;;;;;;;;;;;;;3.35;73.63;98674.69;4183652;28;5944;-68
2021/12/17 16:11:58;;;;;;;;;;;;;;;3.11;74.16;98682.38;4178044;28;5873;-68
2021/12/17 16:20:59;;;;;;;;;;;;;;;3.00;74.50;98677.03;4166205;28;5924;-68
2021/12/17 16:21:12;;;;;;;;;;;;;;;3.17;74.02;98679.34;4184704;28;5816;-69
2021/12/17 16:23:14;;;;;;;;;;;;;;;3.15;73.97;98686.47;4185046;28;5122;-69
2021/12/17 16:25:15;;;;;;;;;;;;;;;3.13;73.74;98681.34;4184945;28;5809;-69
2021/12/17 16:27:17;;;;;;;;;;;;;;;2.71;74.88;98679.72;4184883;28;5838;-70
2021/12/17 16:29:19;;;;;;;;;;;;;;;2.62;75.44;98681.16;4183098;28;5810;-69
2021/12/17 16:31:24;;;;;;;;;;;;;;;2.70;75.65;98679.81;4184151;28;5806;-69
2021/12/17 16:33:25;;;;;;;;;;;;;;;3.03;74.45;98676.81;4177805;28;5964;-73
2021/12/17 16:35:27;;;;;;;;;;;;;;;3.21;74.08;98678.22;4174894;28;6916;-68
2021/12/17 16:37:28;;;;;;;;;;;;;;;3.33;73.89;98671.34;4179831;28;5992;-68
2021/12/17 16:39:30;;;;;;;;;;;;;;;3.19;73.98;98675.72;4181487;28;7326;-69
2021/12/17 16:41:32;;;;;;;;;;;;;;;3.11;73.80;98671.94;4180353;28;6318;-66
2021/12/17 16:43:35;;;;;;;;;;;;;;;3.09;73.56;98673.81;4184988;28;5804;-66
2021/12/17 16:45:41;;;;;;;;;;;;;;;3.01;74.12;98669.06;4180453;28;6025;-69
2021/12/17 16:47:43;;;;;;;;;;;;;;;2.72;74.80;98673.59;4178305;28;5887;-69
2021/12/17 16:49:45;;;;;;;;;;;;;;;2.85;75.10;98671.03;4180685;28;5936;-69
2021/12/17 16:51:50;;;;;;;;;;;;;;;2.83;75.12;98668.50;4182288;28;5823;-68
2021/12/17 16:53:51;;;;;;;;;;;;;;;2.70;74.90;98674.59;4164272;28;5956;-68
2021/12/17 16:55:53;;;;;;;;;;;;;;;2.63;75.01;98677.63;4180776;28;5827;-68
2021/12/17 16:57:56;;;;;;;;;;;;;;;2.80;74.86;98673.06;4178079;28;6800;-68
2021/12/17 16:59:58;;;;;;;;;;;;;;;2.77;74.30;98668.91;4183168;28;5750;-68
2021/12/17 17:02:00;;;;;;;;;;;;;;;2.72;74.42;98670.13;4182149;28;5914;-68
2021/12/17 17:04:02;;;;;;;;;;;;;;;2.83;74.59;98676.34;4182324;28;5953;-69
2021/12/17 17:06:07;;;;;;;;;;;;;;;2.81;74.16;98665.13;4177643;28;5857;-69
2021/12/17 17:08:10;;;;;;;;;;;;;;;2.78;74.25;98670.56;4179100;28;5817;-68
2021/12/17 17:10:13;;;;;;;;;;;;;;;2.81;73.99;98667.75;4183746;28;5809;-68
2021/12/17 17:12:15;;;;;;;;;;;;;;;2.77;74.43;98671.50;4182465;28;5817;-69
2021/12/17 17:14:17;;;;;;;;;;;;;;;2.69;74.69;98670.31;4184246;28;5981;-69
2021/12/17 17:16:18;;;;;;;;;;;;;;;2.70;74.65;98666.75;4184061;28;5985;-70
2021/12/17 17:18:20;;;;;;;;;;;;;;;2.79;74.77;98672.25;4183639;28;5813;-70
2021/12/17 17:20:22;;;;;;;;;;;;;;;2.90;74.52;98671.56;4187761;28;5819;-69
2021/12/17 17:22:24;;;;;;;;;;;;;;;2.96;74.04;98678.16;4180525;28;5817;-69
2021/12/17 17:24:26;;;;;;;;;;;;;;;2.98;74.13;98663.22;4181118;28;5734;-70
2021/12/17 17:26:28;;;;;;;;;;;;;;;2.98;74.42;98665.84;4182763;28;5748;-69
2021/12/17 17:28:30;;;;;;;;;;;;;;;2.99;74.16;98667.50;4182235;28;5714;-69
2021/12/17 17:30:33;;;;;;;;;;;;;;;2.88;74.52;98671.66;4184696;28;5726;-70
2021/12/17 17:32:36;;;;;;;;;;;;;;;3.03;74.44;98669.81;4185218;28;5812;-69
2021/12/17 17:34:38;;;;;;;;;;;;;;;2.89;74.71;98670.72;4185915;28;5709;-69
2021/12/17 17:36:41;;;;;;;;;;;;;;;2.83;74.79;98668.50;4186239;28;5722;-69
2021/12/17 17:38:43;;;;;;;;;;;;;;;2.78;75.01;98661.91;4187329;28;5710;-69
2021/12/17 17:40:45;;;;;;;;;;;;;;;2.54;76.27;98666.91;4187079;28;5722;-69
2021/12/17 17:42:46;;;;;;;;;;;;;;;2.53;76.34;98665.25;4185280;28;5790;-69
2021/12/17 17:44:48;;;;;;;;;;;;;;;2.58;76.09;98658.78;4187212;28;5714;-69
2021/12/17 17:46:49;;;;;;;;;;;;;;;2.46;76.27;98658.72;4187134;28;5702;-69
2021/12/17 17:48:53;;;;;;;;;;;;;;;2.44;76.39;98656.22;4185881;28;5714;-69
2021/12/17 17:50:57;;;;;;;;;;;;;;;2.48;76.46;98659.47;4186866;28;5875;-69
2021/12/17 17:52:59;;;;;;;;;;;;;;;2.43;76.57;98664.16;4185514;28;5150;-69
2021/12/17 17:55:01;;;;;;;;;;;;;;;2.22;77.05;98664.53;4186623;28;5822;-69
2021/12/17 17:57:03;;;;;;;;;;;;;;;2.19;77.41;98662.13;4187181;28;6372;-69
2021/12/17 17:59:05;;;;;;;;;;;;;;;2.25;76.97;98666.13;4185646;28;5702;-69
2021/12/17 18:01:07;;;;;;;;;;;;;;;2.33;76.57;98667.31;4186427;28;5721;-69
2021/12/17 18:03:14;;;;;;;;;;;;;;;2.42;76.26;98667.69;4186590;28;5723;-69
2021/12/17 18:05:17;;;;;;;;;;;;;;;2.22;76.75;98675.00;4186766;28;5707;-69
2021/12/17 18:07:18;;;;;;;;;;;;;;;2.37;76.42;98675.78;4186628;28;5813;-69
2021/12/17 18:09:20;;;;;;;;;;;;;;;2.37;76.18;98680.19;4181869;28;5722;-70
2021/12/17 18:11:21;;;;;;;;;;;;;;;2.36;76.30;98678.50;4165869;28;5780;-70
2021/12/17 18:13:25;;;;;;;;;;;;;;;2.54;75.68;98682.59;4185496;28;5714;-70
2021/12/17 18:15:27;;;;;;;;;;;;;;;2.55;75.77;98684.25;4170021;28;5731;-69
2021/12/17 18:17:28;;;;;;;;;;;;;;;2.67;75.78;98683.47;4178720;28;5722;-69
2021/12/17 18:19:30;;;;;;;;;;;;;;;2.61;75.75;98678.66;4185740;28;5711;-70
2021/12/17 18:21:32;;;;;;;;;;;;;;;2.71;75.53;98674.50;4184144;28;5706;-70
2021/12/17 18:23:33;;;;;;;;;;;;;;;2.90;75.24;98675.00;4185371;28;5698;-70
2021/12/17 18:25:35;;;;;;;;;;;;;;;3.00;74.80;98670.03;4186300;28;5740;-69
2021/12/17 18:27:37;;;;;;;;;;;;;;;2.95;74.77;98677.34;4185102;28;5710;-70
2021/12/17 18:29:41;;;;;;;;;;;;;;;2.88;74.81;98674.28;4184890;28;5722;-70
2021/12/17 18:31:43;;;;;;;;;;;;;;;2.99;74.72;98676.19;4184702;28;5711;-69
2021/12/17 18:33:45;;;;;;;;;;;;;;;2.85;75.22;98668.41;4186119;28;5838;-69
2021/12/17 18:35:47;;;;;;;;;;;;;;;2.88;74.92;98666.44;4186326;28;5830;-70
2021/12/17 18:37:49;;;;;;;;;;;;;;;2.95;74.82;98666.88;4185915;28;6391;-70
2021/12/17 18:39:50;;;;;;;;;;;;;;;2.72;74.75;98675.34;4186019;28;5750;-69
2021/12/17 18:44:05;;;;;;;;;;;;;;;2.74;75.11;98668.25;4185957;28;5731;-70
2021/12/17 18:44:16;;;;;;;;;;;;;;;2.91;74.96;98665.38;4185548;28;5714;-70
2021/12/17 18:46:17;;;;;;;;;;;;;;;2.77;74.83;98661.06;4218240;28;5656;-69
2021/12/17 18:48:21;;;;;;;;;;;;;;;2.87;74.84;98662.16;4185954;28;5739;-70
2021/12/17 18:50:23;;;;;;;;;;;;;;;2.55;75.39;98660.75;4185395;28;5711;-70
2021/12/17 18:52:24;;;;;;;;;;;;;;;2.66;75.38;98654.84;4185116;28;5842;-69
2021/12/17 18:54:26;;;;;;;;;;;;;;;2.76;75.07;98664.63;4185351;28;5714;-69
2021/12/17 18:56:30;;;;;;;;;;;;;;;2.93;74.67;98672.19;4184962;28;5797;-70
2021/12/17 18:58:32;;;;;;;;;;;;;;;3.01;74.48;98660.41;4186154;28;5715;-70
2021/12/17 19:00:34;;;;;;;;;;;;;;;2.81;74.81;98672.13;4185883;28;6378;-69
2021/12/17 19:02:36;;;;;;;;;;;;;;;2.91;74.72;98673.22;4185714;28;5707;-69
2021/12/17 19:04:37;;;;;;;;;;;;;;;2.89;74.57;98673.31;4184573;28;5814;-69
2021/12/17 19:06:41;;;;;;;;;;;;;;;2.93;74.46;98669.56;4184807;28;6185;-70
2021/12/17 19:08:46;;;;;;;;;;;;;;;2.73;75.16;98679.66;4182509;28;5928;-69
2021/12/17 19:10:50;;;;;;;;;;;;;;;2.87;74.79;98680.44;4176720;28;5818;-69
2021/12/17 19:12:51;;;;;;;;;;;;;;;2.70;75.44;98683.28;4178396;28;5835;-69
2021/12/17 19:14:53;;;;;;;;;;;;;;;2.90;74.96;98690.69;4164124;28;5854;-69
2021/12/17 19:16:56;;;;;;;;;;;;;;;3.01;74.35;98684.75;4182359;28;5774;-70
2021/12/17 19:19:10;;;;;;;;;;;;;;;2.71;75.11;98679.72;4182704;28;5860;-69
2021/12/17 19:21:41;;;;;;;;;;;;;;;2.72;75.36;98683.16;4182601;28;5813;-69
2021/12/17 19:23:46;;;;;;;;;;;;;;;2.92;74.98;98672.28;4180926;28;5824;-70
2021/12/17 19:25:47;;;;;;;;;;;;;;;3.05;74.75;98675.78;4182524;28;5730;-69
2021/12/17 19:27:50;;;;;;;;;;;;;;;3.10;74.53;98672.88;4180806;28;5828;-70
2021/12/17 19:29:52;;;;;;;;;;;;;;;3.15;74.44;98670.78;4182340;28;5822;-69
2021/12/17 19:31:53;;;;;;;;;;;;;;;3.15;74.34;98665.56;4180937;28;5961;-69
2021/12/17 19:33:56;;;;;;;;;;;;;;;3.20;74.39;98666.09;4180739;28;5806;-69
2021/12/17 19:35:59;;;;;;;;;;;;;;;3.24;74.45;98667.56;4182041;28;5775;-69